sensor_id;sensor_type;location;lat;lon;timestamp;pressure;altitude;pressure_sealevel;temperature;humidity
52249;BME280;38541;48.130;8.378;2024-02-21T00:01:16;93661.09;;;2.43;72.35
52249;BME280;38541;48.130;8.378;2024-02-21T00:03:43;93666.88;;;2.45;72.61
52249;BME280;38541;48.130;8.378;2024-02-21T00:06:10;93662.69;;;2.44;72.00
52249;BME280;38541;48.130;8.378;2024-02-21T00:08:36;93662.47;;;2.39;72.28
52249;BME280;38541;48.130;8.378;2024-02-21T00:11:03;93664.41;;;2.37;72.00
52249;BME280;38541;48.130;8.378;2024-02-21T00:13:30;93661.47;;;2.40;71.82
52249;BME280;38541;48.130;8.378;2024-02-21T00:15:56;93655.84;;;2.36;72.23
52249;BME280;38541;48.130;8.378;2024-02-21T00:18:23;93661.22;;;2.35;72.26
52249;BME280;38541;48.130;8.378;2024-02-21T00:20:55;93659.22;;;2.37;72.36
52249;BME280;38541;48.130;8.378;2024-02-21T00:23:22;93656.63;;;2.37;71.54
52249;BME280;38541;48.130;8.378;2024-02-21T00:25:49;93652.44;;;2.36;71.83
52249;BME280;38541;48.130;8.378;2024-02-21T00:28:16;93652.09;;;2.39;72.37
52249;BME280;38541;48.130;8.378;2024-02-21T00:30:42;93648.13;;;2.43;71.73
52249;BME280;38541;48.130;8.378;2024-02-21T00:33:09;93651.31;;;2.45;71.99
52249;BME280;38541;48.130;8.378;2024-02-21T00:35:36;93652.53;;;2.49;72.05
52249;BME280;38541;48.130;8.378;2024-02-21T00:38:02;93645.38;;;2.51;71.70
52249;BME280;38541;48.130;8.378;2024-02-21T00:40:29;93641.41;;;2.55;72.12
52249;BME280;38541;48.130;8.378;2024-02-21T00:42:56;93646.91;;;2.46;71.91
52249;BME280;38541;48.130;8.378;2024-02-21T00:45:23;93644.53;;;2.44;72.20
52249;BME280;38541;48.130;8.378;2024-02-21T00:47:49;93652.91;;;2.46;71.83
52249;BME280;38541;48.130;8.378;2024-02-21T00:50:16;93654.34;;;2.49;72.12
52249;BME280;38541;48.130;8.378;2024-02-21T00:52:43;93645.56;;;2.50;72.39
52249;BME280;38541;48.130;8.378;2024-02-21T00:55:10;93637.59;;;2.51;72.58
52249;BME280;38541;48.130;8.378;2024-02-21T00:57:37;93644.63;;;2.58;72.45
52249;BME280;38541;48.130;8.378;2024-02-21T01:00:03;93646.84;;;2.61;72.28
52249;BME280;38541;48.130;8.378;2024-02-21T01:02:30;93649.06;;;2.64;72.04
52249;BME280;38541;48.130;8.378;2024-02-21T01:05:00;93641.84;;;2.59;72.46
52249;BME280;38541;48.130;8.378;2024-02-21T01:07:26;93637.84;;;2.63;72.77
52249;BME280;38541;48.130;8.378;2024-02-21T01:09:53;93638.06;;;2.62;72.30
52249;BME280;38541;48.130;8.378;2024-02-21T01:12:19;93636.84;;;2.58;72.97
52249;BME280;38541;48.130;8.378;2024-02-21T01:14:46;93619.91;;;2.62;72.95
52249;BME280;38541;48.130;8.378;2024-02-21T01:17:13;93614.94;;;2.67;73.20
52249;BME280;38541;48.130;8.378;2024-02-21T01:19:39;93619.13;;;2.68;73.29
52249;BME280;38541;48.130;8.378;2024-02-21T01:22:06;93614.38;;;2.71;73.11
52249;BME280;38541;48.130;8.378;2024-02-21T01:24:32;93605.16;;;2.69;73.45
52249;BME280;38541;48.130;8.378;2024-02-21T01:26:59;93602.19;;;2.72;73.02
52249;BME280;38541;48.130;8.378;2024-02-21T01:29:25;93604.00;;;2.71;73.18
52249;BME280;38541;48.130;8.378;2024-02-21T01:31:52;93597.81;;;2.73;73.11
52249;BME280;38541;48.130;8.378;2024-02-21T01:34:18;93586.44;;;2.74;73.29
52249;BME280;38541;48.130;8.378;2024-02-21T01:36:45;93584.63;;;2.74;72.79
52249;BME280;38541;48.130;8.378;2024-02-21T01:39:12;93587.44;;;2.73;72.46
52249;BME280;38541;48.130;8.378;2024-02-21T01:41:38;93586.81;;;2.70;72.94
52249;BME280;38541;48.130;8.378;2024-02-21T01:44:05;93585.03;;;2.71;73.64
52249;BME280;38541;48.130;8.378;2024-02-21T01:46:31;93583.03;;;2.73;72.94
52249;BME280;38541;48.130;8.378;2024-02-21T01:48:58;93577.06;;;2.73;72.79
52249;BME280;38541;48.130;8.378;2024-02-21T01:51:26;93575.25;;;2.73;72.63
52249;BME280;38541;48.130;8.378;2024-02-21T01:53:53;93567.06;;;2.69;73.43
52249;BME280;38541;48.130;8.378;2024-02-21T01:56:22;93559.50;;;2.75;73.71
52249;BME280;38541;48.130;8.378;2024-02-21T01:58:48;93552.31;;;2.77;73.17
52249;BME280;38541;48.130;8.378;2024-02-21T02:01:16;93549.75;;;2.83;73.62
52249;BME280;38541;48.130;8.378;2024-02-21T02:03:48;93546.75;;;2.87;73.24
52249;BME280;38541;48.130;8.378;2024-02-21T02:06:15;93542.75;;;2.84;72.85
52249;BME280;38541;48.130;8.378;2024-02-21T02:08:42;93534.97;;;2.84;72.70
52249;BME280;38541;48.130;8.378;2024-02-21T02:11:09;93533.38;;;2.83;72.44
52249;BME280;38541;48.130;8.378;2024-02-21T02:13:36;93531.78;;;2.82;72.69
52249;BME280;38541;48.130;8.378;2024-02-21T02:16:03;93520.59;;;2.81;72.77
52249;BME280;38541;48.130;8.378;2024-02-21T02:18:30;93517.41;;;2.79;72.80
52249;BME280;38541;48.130;8.378;2024-02-21T02:20:57;93514.00;;;2.79;73.21
52249;BME280;38541;48.130;8.378;2024-02-21T02:23:33;93494.06;;;2.79;73.11
52249;BME280;38541;48.130;8.378;2024-02-21T02:26:00;93483.47;;;2.81;73.05
52249;BME280;38541;48.130;8.378;2024-02-21T02:28:29;93482.28;;;2.83;73.52
52249;BME280;38541;48.130;8.378;2024-02-21T02:30:56;93484.88;;;2.83;73.47
52249;BME280;38541;48.130;8.378;2024-02-21T02:33:23;93473.28;;;2.79;72.61
52249;BME280;38541;48.130;8.378;2024-02-21T02:35:50;93478.66;;;2.78;72.61
52249;BME280;38541;48.130;8.378;2024-02-21T02:38:16;93474.69;;;2.75;72.68
52249;BME280;38541;48.130;8.378;2024-02-21T02:40:43;93472.88;;;2.76;72.01
52249;BME280;38541;48.130;8.378;2024-02-21T02:43:10;93469.50;;;2.75;72.47
52249;BME280;38541;48.130;8.378;2024-02-21T02:45:36;93457.13;;;2.77;72.66
52249;BME280;38541;48.130;8.378;2024-02-21T02:48:03;93457.13;;;2.77;72.54
52249;BME280;38541;48.130;8.378;2024-02-21T02:50:30;93457.72;;;2.73;72.59
52249;BME280;38541;48.130;8.378;2024-02-21T02:52:57;93469.06;;;2.65;72.73
52249;BME280;38541;48.130;8.378;2024-02-21T02:55:24;93463.06;;;2.71;73.34
52249;BME280;38541;48.130;8.378;2024-02-21T02:57:50;93458.72;;;2.78;72.98
52249;BME280;38541;48.130;8.378;2024-02-21T03:00:17;93456.53;;;2.75;73.38
52249;BME280;38541;48.130;8.378;2024-02-21T03:02:45;93459.91;;;2.76;72.95
52249;BME280;38541;48.130;8.378;2024-02-21T03:05:14;93453.50;;;2.71;73.09
52249;BME280;38541;48.130;8.378;2024-02-21T03:07:42;93445.31;;;2.68;73.79
52249;BME280;38541;48.130;8.378;2024-02-21T03:10:10;93432.97;;;2.77;74.13
52249;BME280;38541;48.130;8.378;2024-02-21T03:12:37;93428.97;;;2.81;73.58
52249;BME280;38541;48.130;8.378;2024-02-21T03:15:05;93425.38;;;2.82;73.57
52249;BME280;38541;48.130;8.378;2024-02-21T03:17:32;93426.78;;;2.84;73.61
52249;BME280;38541;48.130;8.378;2024-02-21T03:20:02;93425.97;;;2.84;73.67
52249;BME280;38541;48.130;8.378;2024-02-21T03:22:31;93429.38;;;2.84;73.15
52249;BME280;38541;48.130;8.378;2024-02-21T03:25:01;93418.00;;;2.85;73.20
52249;BME280;38541;48.130;8.378;2024-02-21T03:27:27;93412.41;;;2.89;73.40
52249;BME280;38541;48.130;8.378;2024-02-21T03:29:54;93408.22;;;2.88;73.28
52249;BME280;38541;48.130;8.378;2024-02-21T03:32:20;93408.44;;;2.86;73.23
52249;BME280;38541;48.130;8.378;2024-02-21T03:34:47;93413.22;;;2.82;73.03
52249;BME280;38541;48.130;8.378;2024-02-21T03:37:13;93422.16;;;2.73;73.20
52249;BME280;38541;48.130;8.378;2024-02-21T03:39:41;93422.78;;;2.68;73.39
52249;BME280;38541;48.130;8.378;2024-02-21T03:42:08;93422.75;;;2.62;73.64
52249;BME280;38541;48.130;8.378;2024-02-21T03:44:34;93406.19;;;2.63;73.77
52249;BME280;38541;48.130;8.378;2024-02-21T03:47:01;93405.81;;;2.66;73.89
52249;BME280;38541;48.130;8.378;2024-02-21T03:49:27;93406.63;;;2.66;73.98
52249;BME280;38541;48.130;8.378;2024-02-21T03:51:55;93400.44;;;2.67;73.56
52249;BME280;38541;48.130;8.378;2024-02-21T03:54:22;93395.22;;;2.61;73.97
52249;BME280;38541;48.130;8.378;2024-02-21T03:56:48;93395.41;;;2.59;73.84
52249;BME280;38541;48.130;8.378;2024-02-21T03:59:15;93395.81;;;2.56;73.76
52249;BME280;38541;48.130;8.378;2024-02-21T04:01:42;93408.38;;;2.59;74.20
52249;BME280;38541;48.130;8.378;2024-02-21T04:04:10;93403.78;;;2.61;73.69
52249;BME280;38541;48.130;8.378;2024-02-21T04:06:36;93408.78;;;2.56;73.67
52249;BME280;38541;48.130;8.378;2024-02-21T04:09:03;93397.97;;;2.52;73.93
52249;BME280;38541;48.130;8.378;2024-02-21T04:11:30;93398.38;;;2.56;74.30
52249;BME280;38541;48.130;8.378;2024-02-21T04:13:56;93400.59;;;2.59;74.16
52249;BME280;38541;48.130;8.378;2024-02-21T04:16:23;93396.22;;;2.60;74.54
52249;BME280;38541;48.130;8.378;2024-02-21T04:18:50;93391.44;;;2.56;73.97
52249;BME280;38541;48.130;8.378;2024-02-21T04:21:16;93392.59;;;2.54;73.80
52249;BME280;38541;48.130;8.378;2024-02-21T04:23:43;93387.41;;;2.54;73.57
52249;BME280;38541;48.130;8.378;2024-02-21T04:26:10;93380.25;;;2.56;73.68
52249;BME280;38541;48.130;8.378;2024-02-21T04:28:36;93376.22;;;2.53;73.75
52249;BME280;38541;48.130;8.378;2024-02-21T04:31:03;93368.25;;;2.48;74.11
52249;BME280;38541;48.130;8.378;2024-02-21T04:33:30;93370.66;;;2.50;73.49
52249;BME280;38541;48.130;8.378;2024-02-21T04:35:56;93361.28;;;2.49;73.70
52249;BME280;38541;48.130;8.378;2024-02-21T04:38:25;93359.66;;;2.41;73.55
52249;BME280;38541;48.130;8.378;2024-02-21T04:40:51;93344.09;;;2.41;74.17
52249;BME280;38541;48.130;8.378;2024-02-21T04:43:18;93346.31;;;2.44;74.07
52249;BME280;38541;48.130;8.378;2024-02-21T04:45:45;93346.09;;;2.46;73.82
52249;BME280;38541;48.130;8.378;2024-02-21T04:48:11;93339.72;;;2.48;73.90
52249;BME280;38541;48.130;8.378;2024-02-21T04:50:38;93334.13;;;2.45;73.58
52249;BME280;38541;48.130;8.378;2024-02-21T04:53:04;93336.31;;;2.41;73.26
52249;BME280;38541;48.130;8.378;2024-02-21T04:55:31;93329.53;;;2.33;73.14
52249;BME280;38541;48.130;8.378;2024-02-21T04:57:57;93342.06;;;2.30;72.64
52249;BME280;38541;48.130;8.378;2024-02-21T05:00:24;93349.44;;;2.26;72.65
52249;BME280;38541;48.130;8.378;2024-02-21T05:02:50;93344.03;;;2.21;72.98
52249;BME280;38541;48.130;8.378;2024-02-21T05:05:17;93343.44;;;2.19;73.44
52249;BME280;38541;48.130;8.378;2024-02-21T05:07:43;93347.03;;;2.18;73.33
52249;BME280;38541;48.130;8.378;2024-02-21T05:10:10;93345.25;;;2.18;73.54
52249;BME280;38541;48.130;8.378;2024-02-21T05:12:36;93341.03;;;2.17;74.15
52249;BME280;38541;48.130;8.378;2024-02-21T05:15:03;93329.69;;;2.18;74.26
52249;BME280;38541;48.130;8.378;2024-02-21T05:17:30;93324.91;;;2.22;74.22
52249;BME280;38541;48.130;8.378;2024-02-21T05:19:57;93322.09;;;2.17;74.33
52249;BME280;38541;48.130;8.378;2024-02-21T05:22:23;93313.16;;;2.19;74.57
52249;BME280;38541;48.130;8.378;2024-02-21T05:24:50;93306.75;;;2.22;74.20
52249;BME280;38541;48.130;8.378;2024-02-21T05:27:17;93312.50;;;2.17;73.92
52249;BME280;38541;48.130;8.378;2024-02-21T05:29:43;93305.94;;;2.14;73.52
52249;BME280;38541;48.130;8.378;2024-02-21T05:32:10;93314.50;;;2.15;74.08
52249;BME280;38541;48.130;8.378;2024-02-21T05:34:37;93310.91;;;2.16;73.41
52249;BME280;38541;48.130;8.378;2024-02-21T05:37:04;93305.13;;;2.14;73.72
52249;BME280;38541;48.130;8.378;2024-02-21T05:39:31;93298.19;;;2.14;73.48
52249;BME280;38541;48.130;8.378;2024-02-21T05:41:57;93312.91;;;2.14;74.04
52249;BME280;38541;48.130;8.378;2024-02-21T05:44:24;93311.91;;;2.08;73.79
52249;BME280;38541;48.130;8.378;2024-02-21T05:46:50;93310.50;;;2.06;73.35
52249;BME280;38541;48.130;8.378;2024-02-21T05:49:17;93303.72;;;2.05;73.64
52249;BME280;38541;48.130;8.378;2024-02-21T05:51:44;93296.94;;;2.04;74.10
52249;BME280;38541;48.130;8.378;2024-02-21T05:54:10;93288.19;;;2.05;73.72
52249;BME280;38541;48.130;8.378;2024-02-21T05:56:36;93288.38;;;2.03;73.94
52249;BME280;38541;48.130;8.378;2024-02-21T05:59:03;93284.38;;;2.01;73.72
52249;BME280;38541;48.130;8.378;2024-02-21T06:01:30;93277.38;;;1.94;73.53
52249;BME280;38541;48.130;8.378;2024-02-21T06:03:56;93281.34;;;1.90;73.41
52249;BME280;38541;48.130;8.378;2024-02-21T06:06:23;93288.91;;;1.85;73.12
52249;BME280;38541;48.130;8.378;2024-02-21T06:08:50;93278.56;;;1.85;73.53
52249;BME280;38541;48.130;8.378;2024-02-21T06:11:16;93284.94;;;1.89;73.34
52249;BME280;38541;48.130;8.378;2024-02-21T06:13:43;93286.13;;;1.87;73.52
52249;BME280;38541;48.130;8.378;2024-02-21T06:16:10;93289.31;;;1.82;73.48
52249;BME280;38541;48.130;8.378;2024-02-21T06:18:37;93287.47;;;1.76;74.09
52249;BME280;38541;48.130;8.378;2024-02-21T06:21:04;93297.25;;;1.74;73.71
52249;BME280;38541;48.130;8.378;2024-02-21T06:23:31;93294.84;;;1.72;74.33
52249;BME280;38541;48.130;8.378;2024-02-21T06:25:57;93297.25;;;1.74;74.37
52249;BME280;38541;48.130;8.378;2024-02-21T06:28:24;93288.47;;;1.75;74.55
52249;BME280;38541;48.130;8.378;2024-02-21T06:30:51;93288.25;;;1.69;74.12
52249;BME280;38541;48.130;8.378;2024-02-21T06:33:17;93281.28;;;1.70;73.55
52249;BME280;38541;48.130;8.378;2024-02-21T06:35:44;93280.88;;;1.66;74.20
52249;BME280;38541;48.130;8.378;2024-02-21T06:38:13;93285.66;;;1.69;74.17
52249;BME280;38541;48.130;8.378;2024-02-21T06:40:42;93276.50;;;1.74;73.89
52249;BME280;38541;48.130;8.378;2024-02-21T06:43:08;93278.31;;;1.73;73.59
52249;BME280;38541;48.130;8.378;2024-02-21T06:45:35;93279.31;;;1.79;73.91
52249;BME280;38541;48.130;8.378;2024-02-21T06:48:02;93282.28;;;1.76;73.54
52249;BME280;38541;48.130;8.378;2024-02-21T06:50:28;93275.72;;;1.73;73.26
52249;BME280;38541;48.130;8.378;2024-02-21T06:52:55;93278.31;;;1.80;74.12
52249;BME280;38541;48.130;8.378;2024-02-21T06:55:22;93274.56;;;1.82;74.19
52249;BME280;38541;48.130;8.378;2024-02-21T06:57:48;93277.16;;;1.82;73.63
52249;BME280;38541;48.130;8.378;2024-02-21T07:00:15;93278.56;;;1.85;74.38
52249;BME280;38541;48.130;8.378;2024-02-21T07:02:42;93273.38;;;1.85;73.94
52249;BME280;38541;48.130;8.378;2024-02-21T07:05:08;93265.22;;;1.88;73.76
52249;BME280;38541;48.130;8.378;2024-02-21T07:07:35;93262.22;;;1.91;73.93
52249;BME280;38541;48.130;8.378;2024-02-21T07:10:02;93267.00;;;1.94;73.50
52249;BME280;38541;48.130;8.378;2024-02-21T07:12:28;93258.03;;;1.90;73.17
52249;BME280;38541;48.130;8.378;2024-02-21T07:14:55;93256.84;;;1.86;73.75
52249;BME280;38541;48.130;8.378;2024-02-21T07:17:21;93262.78;;;1.80;74.13
52249;BME280;38541;48.130;8.378;2024-02-21T07:19:48;93256.03;;;1.92;74.42
52249;BME280;38541;48.130;8.378;2024-02-21T07:22:14;93256.25;;;1.97;74.59
52249;BME280;38541;48.130;8.378;2024-02-21T07:24:41;93253.06;;;2.02;74.52
52249;BME280;38541;48.130;8.378;2024-02-21T07:27:07;93251.50;;;2.08;74.22
52249;BME280;38541;48.130;8.378;2024-02-21T07:29:34;93254.91;;;2.15;74.63
52249;BME280;38541;48.130;8.378;2024-02-21T07:32:01;93256.72;;;2.28;74.02
52249;BME280;38541;48.130;8.378;2024-02-21T07:34:27;93249.53;;;2.37;74.02
52249;BME280;38541;48.130;8.378;2024-02-21T07:36:54;93247.16;;;2.49;73.94
52249;BME280;38541;48.130;8.378;2024-02-21T07:39:21;93248.97;;;2.55;73.24
52249;BME280;38541;48.130;8.378;2024-02-21T07:41:47;93237.59;;;2.63;73.50
52249;BME280;38541;48.130;8.378;2024-02-21T07:44:15;93234.19;;;2.76;73.37
52249;BME280;38541;48.130;8.378;2024-02-21T07:46:42;93236.78;;;2.82;73.42
52249;BME280;38541;48.130;8.378;2024-02-21T07:49:08;93229.75;;;2.96;73.39
52249;BME280;38541;48.130;8.378;2024-02-21T07:51:35;93231.16;;;3.06;73.56
52249;BME280;38541;48.130;8.378;2024-02-21T07:54:02;93227.94;;;3.10;72.98
52249;BME280;38541;48.130;8.378;2024-02-21T07:56:30;93232.75;;;3.13;72.85
52249;BME280;38541;48.130;8.378;2024-02-21T07:58:57;93242.72;;;3.17;73.51
52249;BME280;38541;48.130;8.378;2024-02-21T08:01:24;93233.91;;;3.24;72.95
52249;BME280;38541;48.130;8.378;2024-02-21T08:03:51;93229.88;;;3.35;72.72
52249;BME280;38541;48.130;8.378;2024-02-21T08:06:17;93223.84;;;3.41;72.76
52249;BME280;38541;48.130;8.378;2024-02-21T08:08:44;93220.84;;;3.45;72.20
52249;BME280;38541;48.130;8.378;2024-02-21T08:11:10;93219.81;;;3.52;71.89
52249;BME280;38541;48.130;8.378;2024-02-21T08:13:37;93223.97;;;3.60;71.91
52249;BME280;38541;48.130;8.378;2024-02-21T08:16:04;93230.53;;;3.69;71.71
52249;BME280;38541;48.130;8.378;2024-02-21T08:18:30;93225.88;;;3.78;71.43
52249;BME280;38541;48.130;8.378;2024-02-21T08:20:57;93219.41;;;3.94;71.49
52249;BME280;38541;48.130;8.378;2024-02-21T08:23:24;93219.59;;;3.99;71.17
52249;BME280;38541;48.130;8.378;2024-02-21T08:25:51;93220.31;;;4.07;70.99
52249;BME280;38541;48.130;8.378;2024-02-21T08:28:17;93223.91;;;4.12;70.85
52249;BME280;38541;48.130;8.378;2024-02-21T08:30:44;93223.25;;;4.24;70.95
52249;BME280;38541;48.130;8.378;2024-02-21T08:33:15;93225.97;;;4.36;70.99
52249;BME280;38541;48.130;8.378;2024-02-21T08:35:43;93220.91;;;4.41;70.77
52249;BME280;38541;48.130;8.378;2024-02-21T08:38:09;93219.84;;;4.49;70.61
52249;BME280;38541;48.130;8.378;2024-02-21T08:40:36;93211.94;;;4.62;70.42
52249;BME280;38541;48.130;8.378;2024-02-21T08:43:03;93205.09;;;4.68;70.34
52249;BME280;38541;48.130;8.378;2024-02-21T08:45:30;93202.06;;;4.71;70.28
52249;BME280;38541;48.130;8.378;2024-02-21T08:47:56;93198.75;;;4.82;69.84
52249;BME280;38541;48.130;8.378;2024-02-21T08:50:23;93198.00;;;5.00;69.95
52249;BME280;38541;48.130;8.378;2024-02-21T08:52:55;93190.25;;;5.12;68.89
52249;BME280;38541;48.130;8.378;2024-02-21T08:55:22;93184.16;;;5.19;69.14
52249;BME280;38541;48.130;8.378;2024-02-21T08:57:48;93182.44;;;5.31;69.60
52249;BME280;38541;48.130;8.378;2024-02-21T09:00:15;93189.16;;;5.39;69.95
52249;BME280;38541;48.130;8.378;2024-02-21T09:02:42;93186.25;;;5.47;70.10
52249;BME280;38541;48.130;8.378;2024-02-21T09:05:10;93188.94;;;5.59;70.11
52249;BME280;38541;48.130;8.378;2024-02-21T09:07:36;93182.41;;;5.68;70.35
52249;BME280;38541;48.130;8.378;2024-02-21T09:10:03;93179.91;;;5.74;70.24
52249;BME280;38541;48.130;8.378;2024-02-21T09:12:30;93179.38;;;5.83;70.00
52249;BME280;38541;48.130;8.378;2024-02-21T09:14:56;93172.56;;;6.01;70.03
52249;BME280;38541;48.130;8.378;2024-02-21T09:17:23;93172.94;;;6.17;69.99
52249;BME280;38541;48.130;8.378;2024-02-21T09:19:51;93163.09;;;6.31;69.11
52249;BME280;38541;48.130;8.378;2024-02-21T09:22:18;93169.69;;;6.45;67.82
52249;BME280;38541;48.130;8.378;2024-02-21T09:24:45;93160.75;;;6.53;67.46
52249;BME280;38541;48.130;8.378;2024-02-21T09:27:11;93157.34;;;6.64;67.54
52249;BME280;38541;48.130;8.378;2024-02-21T09:29:38;93151.56;;;6.74;67.01
52249;BME280;38541;48.130;8.378;2024-02-21T09:32:06;93152.69;;;6.78;66.48
52249;BME280;38541;48.130;8.378;2024-02-21T09:34:32;93147.81;;;6.94;66.67
52249;BME280;38541;48.130;8.378;2024-02-21T09:36:59;93151.28;;;6.99;65.94
52249;BME280;38541;48.130;8.378;2024-02-21T09:39:26;93149.59;;;7.05;65.87
52249;BME280;38541;48.130;8.378;2024-02-21T09:42:05;93152.91;;;7.12;65.66
52249;BME280;38541;48.130;8.378;2024-02-21T09:44:37;93154.00;;;7.17;65.68
52249;BME280;38541;48.130;8.378;2024-02-21T09:47:10;93151.03;;;7.25;65.23
52249;BME280;38541;48.130;8.378;2024-02-21T09:49:40;93147.13;;;7.39;65.46
52249;BME280;38541;48.130;8.378;2024-02-21T09:52:07;93133.81;;;7.53;65.46
52249;BME280;38541;48.130;8.378;2024-02-21T09:54:35;93131.94;;;7.65;65.04
52249;BME280;38541;48.130;8.378;2024-02-21T09:57:03;93132.13;;;7.76;65.49
52249;BME280;38541;48.130;8.378;2024-02-21T09:59:31;93126.91;;;7.93;65.33
52249;BME280;38541;48.130;8.378;2024-02-21T10:01:58;93129.00;;;8.08;65.49
52249;BME280;38541;48.130;8.378;2024-02-21T10:04:29;93130.69;;;8.14;64.86
52249;BME280;38541;48.130;8.378;2024-02-21T10:06:56;93119.09;;;8.27;64.93
52249;BME280;38541;48.130;8.378;2024-02-21T10:09:24;93116.41;;;8.39;64.42
52249;BME280;38541;48.130;8.378;2024-02-21T10:11:54;93117.69;;;8.53;64.41
52249;BME280;38541;48.130;8.378;2024-02-21T10:14:21;93121.31;;;8.69;63.84
52249;BME280;38541;48.130;8.378;2024-02-21T10:16:56;93115.44;;;8.79;63.75
52249;BME280;38541;48.130;8.378;2024-02-21T10:19:24;93113.03;;;8.95;63.54
52249;BME280;38541;48.130;8.378;2024-02-21T10:22:09;93114.25;;;9.09;63.50
52249;BME280;38541;48.130;8.378;2024-02-21T10:24:37;93112.06;;;9.23;62.54
52249;BME280;38541;48.130;8.378;2024-02-21T10:27:10;93110.34;;;9.34;62.31
52249;BME280;38541;48.130;8.378;2024-02-21T10:29:40;93104.69;;;9.42;61.49
52249;BME280;38541;48.130;8.378;2024-02-21T10:32:11;93101.38;;;9.52;61.94
52249;BME280;38541;48.130;8.378;2024-02-21T10:34:40;93103.06;;;9.64;61.70
52249;BME280;38541;48.130;8.378;2024-02-21T10:37:08;93094.81;;;9.77;61.81
52249;BME280;38541;48.130;8.378;2024-02-21T10:39:41;93094.56;;;9.79;60.96
52249;BME280;38541;48.130;8.378;2024-02-21T10:42:11;93083.66;;;9.92;61.21
52249;BME280;38541;48.130;8.378;2024-02-21T10:44:39;93071.16;;;10.05;60.75
52249;BME280;38541;48.130;8.378;2024-02-21T10:47:11;93063.94;;;10.22;61.07
52249;BME280;38541;48.130;8.378;2024-02-21T10:49:41;93060.53;;;10.22;60.27
52249;BME280;38541;48.130;8.378;2024-02-21T10:55:02;93045.00;;;10.15;59.18
52249;BME280;38541;48.130;8.378;2024-02-21T10:57:31;93049.78;;;10.23;59.14
52249;BME280;38541;48.130;8.378;2024-02-21T10:59:59;93047.25;;;10.39;59.49
52249;BME280;38541;48.130;8.378;2024-02-21T11:02:26;93042.06;;;10.44;58.99
52249;BME280;38541;48.130;8.378;2024-02-21T11:04:57;93032.69;;;10.59;58.75
52249;BME280;38541;48.130;8.378;2024-02-21T11:07:24;93035.94;;;10.76;58.69
52249;BME280;38541;48.130;8.378;2024-02-21T11:09:52;93035.22;;;10.86;58.47
52249;BME280;38541;48.130;8.378;2024-02-21T11:12:23;93034.69;;;10.94;58.60
52249;BME280;38541;48.130;8.378;2024-02-21T11:14:50;93021.38;;;11.11;58.66
52249;BME280;38541;48.130;8.378;2024-02-21T11:17:17;93020.88;;;11.25;58.56
52249;BME280;38541;48.130;8.378;2024-02-21T11:19:45;93015.91;;;11.34;57.92
52249;BME280;38541;48.130;8.378;2024-02-21T11:22:16;93013.31;;;11.44;57.21
52249;BME280;38541;48.130;8.378;2024-02-21T11:24:43;93003.06;;;11.58;57.46
52249;BME280;38541;48.130;8.378;2024-02-21T11:29:44;92994.66;;;11.82;56.60
52249;BME280;38541;48.130;8.378;2024-02-21T11:32:11;92993.09;;;11.91;56.59
52249;BME280;38541;48.130;8.378;2024-02-21T11:34:38;92987.31;;;12.05;56.47
52249;BME280;38541;48.130;8.378;2024-02-21T11:37:13;92977.81;;;12.14;56.11
52249;BME280;38541;48.130;8.378;2024-02-21T11:39:42;92975.69;;;12.21;55.82
52249;BME280;38541;48.130;8.378;2024-02-21T11:42:09;92974.66;;;12.22;55.77
52249;BME280;38541;48.130;8.378;2024-02-21T11:44:36;92967.53;;;12.33;55.53
52249;BME280;38541;48.130;8.378;2024-02-21T11:47:07;92964.34;;;12.41;55.82
52249;BME280;38541;48.130;8.378;2024-02-21T11:49:46;92961.44;;;12.38;54.80
52249;BME280;38541;48.130;8.378;2024-02-21T11:52:13;92958.81;;;12.38;55.24
52249;BME280;38541;48.130;8.378;2024-02-21T11:54:42;92956.19;;;12.43;54.90
52249;BME280;38541;48.130;8.378;2024-02-21T11:57:08;92953.78;;;12.52;54.55
52249;BME280;38541;48.130;8.378;2024-02-21T11:59:35;92947.69;;;12.62;54.51
52249;BME280;38541;48.130;8.378;2024-02-21T12:02:02;92948.19;;;12.69;54.38
52249;BME280;38541;48.130;8.378;2024-02-21T12:04:30;92943.19;;;12.62;54.22
52249;BME280;38541;48.130;8.378;2024-02-21T12:06:59;92928.41;;;12.66;53.76
52249;BME280;38541;48.130;8.378;2024-02-21T12:09:26;92926.06;;;12.65;54.10
52249;BME280;38541;48.130;8.378;2024-02-21T12:12:01;92926.06;;;12.60;54.11
52249;BME280;38541;48.130;8.378;2024-02-21T12:14:30;92926.59;;;12.62;54.47
52249;BME280;38541;48.130;8.378;2024-02-21T12:16:57;92918.94;;;12.65;54.53
52249;BME280;38541;48.130;8.378;2024-02-21T12:19:24;92910.22;;;12.70;53.45
52249;BME280;38541;48.130;8.378;2024-02-21T12:21:50;92907.31;;;12.66;54.17
52249;BME280;38541;48.130;8.378;2024-02-21T12:24:24;92899.97;;;12.63;54.28
52249;BME280;38541;48.130;8.378;2024-02-21T12:26:55;92906.03;;;12.59;53.71
52249;BME280;38541;48.130;8.378;2024-02-21T12:29:23;92890.44;;;12.67;54.08
52249;BME280;38541;48.130;8.378;2024-02-21T12:31:53;92896.00;;;12.66;54.97
52249;BME280;38541;48.130;8.378;2024-02-21T12:34:21;92888.59;;;12.68;54.09
52249;BME280;38541;48.130;8.378;2024-02-21T12:37:04;92888.66;;;12.63;54.45
52249;BME280;38541;48.130;8.378;2024-02-21T12:39:30;92878.63;;;12.65;53.99
52249;BME280;38541;48.130;8.378;2024-02-21T12:41:58;92880.88;;;12.82;54.39
52249;BME280;38541;48.130;8.378;2024-02-21T12:44:24;92878.22;;;12.92;53.78
52249;BME280;38541;48.130;8.378;2024-02-21T12:46:51;92869.22;;;12.93;54.07
52249;BME280;38541;48.130;8.378;2024-02-21T12:49:20;92864.13;;;13.07;53.85
52249;BME280;38541;48.130;8.378;2024-02-21T12:51:47;92857.94;;;13.22;53.64
52249;BME280;38541;48.130;8.378;2024-02-21T12:54:13;92851.63;;;13.23;52.98
52249;BME280;38541;48.130;8.378;2024-02-21T12:56:40;92844.44;;;13.29;53.62
52249;BME280;38541;48.130;8.378;2024-02-21T12:59:07;92836.78;;;13.33;53.32
52249;BME280;38541;48.130;8.378;2024-02-21T13:01:37;92833.31;;;13.37;53.40
52249;BME280;38541;48.130;8.378;2024-02-21T13:04:04;92821.13;;;13.41;53.34
52249;BME280;38541;48.130;8.378;2024-02-21T13:06:31;92821.69;;;13.44;53.92
52249;BME280;38541;48.130;8.378;2024-02-21T13:08:57;92826.34;;;13.52;53.70
52249;BME280;38541;48.130;8.378;2024-02-21T13:11:25;92817.34;;;13.58;52.50
52249;BME280;38541;48.130;8.378;2024-02-21T13:13:54;92811.81;;;13.54;53.42
52249;BME280;38541;48.130;8.378;2024-02-21T13:16:21;92809.72;;;13.51;53.08